createdAt,value
2019-03-15T00:01:07.572Z,89.20
2019-03-15T00:05:16.144Z,89.30
2019-03-15T00:09:23.751Z,88.50
2019-03-15T00:13:31.964Z,88.90
2019-03-15T00:17:40.148Z,88.40
2019-03-15T00:21:48.684Z,88.30
2019-03-15T00:25:56.901Z,87.40
2019-03-15T00:30:06.059Z,88.90
2019-03-15T00:34:14.646Z,88.00
2019-03-15T00:38:23.916Z,87.90
2019-03-15T00:42:31.362Z,88.40
2019-03-15T00:46:39.601Z,87.20
2019-03-15T00:50:48.325Z,87.60
2019-03-15T00:54:56.540Z,87.90
2019-03-15T00:59:04.740Z,88.10
2019-03-15T01:03:12.512Z,88.30
2019-03-15T01:07:20.046Z,88.60
2019-03-15T01:11:28.281Z,89.60
2019-03-15T01:15:36.463Z,89.00
2019-03-15T01:19:44.601Z,88.20
2019-03-15T01:23:52.841Z,88.80
2019-03-15T01:28:00.469Z,88.90
2019-03-15T01:32:08.699Z,89.00
2019-03-15T01:36:16.812Z,89.00
2019-03-15T01:40:24.996Z,89.20
2019-03-15T01:44:32.534Z,89.40
2019-03-15T01:48:40.108Z,89.30
2019-03-15T01:52:48.983Z,89.60
2019-03-15T01:56:57.244Z,89.70
2019-03-15T02:01:04.792Z,89.80
2019-03-15T02:05:13.497Z,89.80
2019-03-15T02:09:21.019Z,90.00
2019-03-15T02:13:28.527Z,90.40
2019-03-15T02:17:36.696Z,90.00
2019-03-15T02:21:46.025Z,90.00
2019-03-15T02:25:54.295Z,89.80
2019-03-15T02:30:02.548Z,90.10
2019-03-15T02:34:10.021Z,90.30
2019-03-15T02:38:18.350Z,90.70
2019-03-15T02:42:26.625Z,90.80
2019-03-15T02:46:34.044Z,91.00
2019-03-15T02:50:41.703Z,91.00
2019-03-15T02:54:50.034Z,91.20
2019-03-15T02:58:57.528Z,91.00
2019-03-15T03:03:05.038Z,91.00
2019-03-15T03:07:14.002Z,90.90
2019-03-15T03:11:21.665Z,90.90
2019-03-15T03:15:30.361Z,90.80
2019-03-15T03:19:37.877Z,91.20
2019-03-15T03:23:45.804Z,91.00
2019-03-15T03:27:53.979Z,91.00
2019-03-15T03:32:02.168Z,91.10
2019-03-15T03:36:10.415Z,91.00
2019-03-15T03:40:20.185Z,90.90
2019-03-15T03:44:26.659Z,91.30
2019-03-15T03:48:35.458Z,90.80
2019-03-15T03:52:43.234Z,91.10
2019-03-15T03:56:51.552Z,91.00
2019-03-15T04:00:59.039Z,90.70
2019-03-15T04:05:07.207Z,90.60
2019-03-15T04:09:15.148Z,90.60
2019-03-15T04:13:23.263Z,90.50
2019-03-15T04:17:33.465Z,90.60
2019-03-15T04:21:42.937Z,90.40
2019-03-15T04:25:51.182Z,90.30
2019-03-15T04:29:58.659Z,90.40
2019-03-15T04:34:11.027Z,90.40
2019-03-15T04:38:18.911Z,90.40
2019-03-15T04:42:26.420Z,90.60
2019-03-15T04:46:34.603Z,90.70
2019-03-15T04:50:42.995Z,90.90
2019-03-15T04:54:50.555Z,91.30
2019-03-15T04:58:58.159Z,91.00
2019-03-15T05:03:06.504Z,91.20
2019-03-15T05:07:15.201Z,91.50
2019-03-15T05:11:22.760Z,91.10
2019-03-15T05:15:30.923Z,91.20
2019-03-15T05:19:39.114Z,91.30
2019-03-15T05:23:48.101Z,91.50
2019-03-15T05:27:56.295Z,91.60
2019-03-15T05:32:04.601Z,91.90
2019-03-15T05:36:13.394Z,91.90
2019-03-15T05:40:21.025Z,92.00
2019-03-15T05:44:28.550Z,92.50
2019-03-15T05:48:36.030Z,92.60
2019-03-15T05:52:43.535Z,92.70
2019-03-15T05:56:51.015Z,92.90
2019-03-15T06:00:58.531Z,93.10
2019-03-15T06:05:08.825Z,93.20
2019-03-15T06:09:13.503Z,93.60
2019-03-15T06:13:21.068Z,93.80
2019-03-15T06:17:29.259Z,93.90
2019-03-15T06:21:36.867Z,93.20
2019-03-15T06:25:44.884Z,93.50
2019-03-15T06:29:53.044Z,93.30
2019-03-15T06:34:01.235Z,93.50
2019-03-15T06:38:09.447Z,93.50
2019-03-15T06:42:17.615Z,93.60
2019-03-15T06:46:25.115Z,93.70
2019-03-15T06:50:32.640Z,93.80
2019-03-15T06:54:40.121Z,93.80
2019-03-15T06:58:48.280Z,93.90
2019-03-15T07:02:55.867Z,93.90
2019-03-15T07:07:04.159Z,94.30
2019-03-15T07:11:12.379Z,94.10
2019-03-15T07:15:19.855Z,94.10
2019-03-15T07:19:30.313Z,94.00
2019-03-15T07:23:34.836Z,94.30
2019-03-15T07:27:43.270Z,94.40
2019-03-15T07:31:51.184Z,94.90
2019-03-15T07:35:59.557Z,94.60
2019-03-15T07:40:07.503Z,94.80
2019-03-15T07:44:15.073Z,94.80
2019-03-15T07:48:25.641Z,94.90
2019-03-15T07:52:30.975Z,95.00
2019-03-15T07:56:38.623Z,95.20
2019-03-15T08:00:47.006Z,95.20
2019-03-15T08:04:54.409Z,95.10
2019-03-15T08:09:02.581Z,94.70
2019-03-15T08:13:10.806Z,95.00
2019-03-15T08:17:18.967Z,95.00
2019-03-15T08:21:27.223Z,95.00
2019-03-15T08:25:35.392Z,95.40
2019-03-15T08:29:43.548Z,95.60
2019-03-15T08:33:51.042Z,95.60
2019-03-15T08:37:58.524Z,95.60
2019-03-15T08:42:06.674Z,95.60
2019-03-15T08:46:14.958Z,95.40
2019-03-15T08:50:24.532Z,94.80
2019-03-15T08:54:31.394Z,94.70
2019-03-15T08:58:39.650Z,94.70
2019-03-15T09:02:47.906Z,94.60
2019-03-15T09:06:56.072Z,94.50
2019-03-15T09:11:04.298Z,94.30
2019-03-15T09:15:11.782Z,94.00
2019-03-15T09:19:19.338Z,94.10
2019-03-15T09:23:27.507Z,93.80
2019-03-15T09:27:37.198Z,93.50
2019-03-15T09:31:47.953Z,93.40
2019-03-15T09:35:52.866Z,93.00
2019-03-15T09:40:01.077Z,93.30
2019-03-15T09:44:09.233Z,93.40
2019-03-15T09:48:17.450Z,92.90
2019-03-15T09:52:25.667Z,92.10
2019-03-15T09:56:33.811Z,91.60
2019-03-15T10:00:42.007Z,91.70
2019-03-15T10:04:50.151Z,92.00
2019-03-15T10:08:58.368Z,91.50
2019-03-15T10:13:06.629Z,91.70
2019-03-15T10:17:14.010Z,91.30
2019-03-15T10:21:21.526Z,91.00
2019-03-15T10:25:29.734Z,91.30
2019-03-15T10:29:37.897Z,91.40
2019-03-15T10:33:50.650Z,90.50
2019-03-15T10:37:54.256Z,90.20
2019-03-15T10:42:02.427Z,90.00
2019-03-15T10:46:09.963Z,90.00
2019-03-15T10:50:18.151Z,90.20
2019-03-15T10:54:26.363Z,89.60
2019-03-15T10:58:33.848Z,89.40
2019-03-15T11:02:42.004Z,87.50
2019-03-15T11:06:49.519Z,87.90
2019-03-15T11:10:57.387Z,87.80
2019-03-15T11:15:06.508Z,87.50
2019-03-15T11:19:15.692Z,88.30
2019-03-15T11:23:22.831Z,87.00
2019-03-15T11:27:31.083Z,86.10
2019-03-15T11:31:39.268Z,86.80
2019-03-15T11:35:47.450Z,86.50
2019-03-15T11:39:55.619Z,87.20
2019-03-15T11:44:03.798Z,85.20
2019-03-15T11:48:11.968Z,86.20
2019-03-15T11:52:20.226Z,85.70
2019-03-15T11:56:28.373Z,86.00
2019-03-15T12:00:36.513Z,86.30
2019-03-15T12:04:44.643Z,85.60
2019-03-15T12:08:52.778Z,85.20
2019-03-15T12:13:00.907Z,87.00
2019-03-15T12:17:09.053Z,86.60
2019-03-15T12:21:17.209Z,86.40
2019-03-15T12:25:24.649Z,86.50
2019-03-15T12:29:33.021Z,87.00
2019-03-15T12:33:41.173Z,86.60
2019-03-15T12:37:48.658Z,87.80
2019-03-15T12:41:56.863Z,87.50
2019-03-15T12:46:04.979Z,88.00
2019-03-15T12:50:13.126Z,88.40
2019-03-15T12:54:21.377Z,88.70
2019-03-15T12:58:29.501Z,88.70
2019-03-15T13:02:36.966Z,89.10
2019-03-15T13:06:44.429Z,88.50
2019-03-15T13:10:51.937Z,87.40
2019-03-15T13:14:59.410Z,88.50
2019-03-15T13:19:07.563Z,86.30
2019-03-15T13:23:15.958Z,87.60
2019-03-15T13:27:23.534Z,88.10
2019-03-15T13:31:31.033Z,88.80
2019-03-15T13:35:38.487Z,88.90
2019-03-15T13:39:46.037Z,90.20
2019-03-15T13:43:53.525Z,90.20
2019-03-15T13:48:01.009Z,90.10
2019-03-15T13:52:10.218Z,90.50
2019-03-15T13:56:18.365Z,89.30
2019-03-15T14:00:25.829Z,88.50
2019-03-15T14:04:33.297Z,89.20
2019-03-15T14:08:41.497Z,89.70
2019-03-15T14:12:49.025Z,89.50
2019-03-15T14:16:57.152Z,89.30
2019-03-15T14:21:04.675Z,89.30
2019-03-15T14:25:12.782Z,90.00
2019-03-15T14:29:20.910Z,90.00
2019-03-15T14:33:29.161Z,90.10
2019-03-15T14:37:36.850Z,90.10
2019-03-15T14:41:45.102Z,90.30
2019-03-15T14:45:53.135Z,90.30
2019-03-15T14:50:00.943Z,90.00
2019-03-15T14:54:08.441Z,90.30
2019-03-15T14:58:16.556Z,90.70
2019-03-15T15:02:24.681Z,90.90
2019-03-15T15:06:32.874Z,90.80
2019-03-15T15:10:41.003Z,90.80
2019-03-15T15:18:59.469Z,91.10
2019-03-15T15:23:08.960Z,90.90
2019-03-15T15:27:17.121Z,90.90
2019-03-15T15:31:25.250Z,91.10
2019-03-15T15:35:33.479Z,91.50
2019-03-15T15:39:41.534Z,91.90
2019-03-15T15:43:49.012Z,91.60
2019-03-15T15:47:56.461Z,92.10
2019-03-15T15:52:03.977Z,92.00
2019-03-15T15:56:11.547Z,92.00
2019-03-15T16:00:19.008Z,92.40
2019-03-15T16:04:27.877Z,92.50
2019-03-15T16:08:35.365Z,92.80
2019-03-15T16:12:43.490Z,92.70
2019-03-15T16:16:51.644Z,93.10
2019-03-15T16:20:59.121Z,93.30
2019-03-15T16:25:07.255Z,93.40
2019-03-15T16:29:15.489Z,93.60
2019-03-15T16:33:23.742Z,93.80
2019-03-15T16:37:31.798Z,93.50
2019-03-15T16:41:39.921Z,93.50
2019-03-15T16:45:48.066Z,93.60
2019-03-15T16:49:55.518Z,93.60
2019-03-15T16:54:03.717Z,93.30
2019-03-15T16:58:11.865Z,93.50
2019-03-15T17:02:20.101Z,94.00
2019-03-15T17:06:28.175Z,93.70
2019-03-15T17:10:35.657Z,93.70
2019-03-15T17:14:43.113Z,93.90
2019-03-15T17:18:50.674Z,94.00
2019-03-15T17:22:58.641Z,94.00
2019-03-15T17:27:06.119Z,94.60
2019-03-15T17:31:13.587Z,94.10
2019-03-15T17:35:21.044Z,94.30
2019-03-15T17:39:28.566Z,94.20
2019-03-15T17:43:36.781Z,94.50
2019-03-15T17:47:44.257Z,94.20
2019-03-15T17:51:51.709Z,94.20
2019-03-15T17:55:59.937Z,94.00
2019-03-15T18:00:17.325Z,94.30
2019-03-15T18:04:24.813Z,94.30
2019-03-15T18:08:32.286Z,94.70
2019-03-15T18:12:40.520Z,94.70
2019-03-15T18:16:48.709Z,95.30
2019-03-15T18:20:56.189Z,95.00
2019-03-15T18:25:03.679Z,95.10
2019-03-15T18:29:11.473Z,94.80
2019-03-15T18:33:19.631Z,95.10
2019-03-15T18:37:27.077Z,95.50
2019-03-15T18:41:34.577Z,95.40
2019-03-15T18:45:42.042Z,95.10
2019-03-15T18:49:50.189Z,95.20
2019-03-15T18:53:57.707Z,94.80
2019-03-15T18:58:05.858Z,95.00
2019-03-15T19:02:14.077Z,95.20
2019-03-15T19:06:22.322Z,95.10
2019-03-15T19:10:30.467Z,95.20
2019-03-15T19:14:37.929Z,94.90
2019-03-15T19:18:46.068Z,95.30
2019-03-15T19:22:53.645Z,95.50
2019-03-15T19:27:01.786Z,95.50
2019-03-15T19:31:09.935Z,95.70
2019-03-15T19:35:18.141Z,95.40
2019-03-15T19:39:25.696Z,95.40
2019-03-15T19:43:33.834Z,95.40
2019-03-15T19:47:42.052Z,95.20
2019-03-15T19:51:49.530Z,95.00
2019-03-15T19:55:56.992Z,95.40
2019-03-15T20:00:08.170Z,95.30
2019-03-15T20:04:13.070Z,95.70
2019-03-15T20:08:20.569Z,95.70
2019-03-15T20:12:28.408Z,95.70
2019-03-15T20:16:37.209Z,95.70
2019-03-15T20:20:45.418Z,95.60
2019-03-15T20:24:52.919Z,95.50
2019-03-15T20:29:00.500Z,94.80
2019-03-15T20:33:08.643Z,95.10
2019-03-15T20:37:16.402Z,95.20
2019-03-15T20:41:24.558Z,94.60
2019-03-15T20:45:32.060Z,94.80
2019-03-15T20:49:39.577Z,94.70
2019-03-15T20:53:47.096Z,94.70
2019-03-15T20:57:55.666Z,93.60
2019-03-15T21:02:03.178Z,93.80
2019-03-15T21:06:11.362Z,93.60
2019-03-15T21:10:18.966Z,93.70
2019-03-15T21:14:27.124Z,93.90
2019-03-15T21:18:34.615Z,93.90
2019-03-15T21:22:43.634Z,93.60
2019-03-15T21:26:54.111Z,93.90
2019-03-15T21:31:02.363Z,94.60
2019-03-15T21:35:15.086Z,94.50
2019-03-15T21:39:22.603Z,95.10
2019-03-15T21:43:30.081Z,95.10
2019-03-15T21:47:37.604Z,95.20
2019-03-15T21:51:46.408Z,95.20
2019-03-15T21:55:54.133Z,95.20
2019-03-15T22:00:01.603Z,95.20
2019-03-15T22:04:09.708Z,95.00
2019-03-15T22:08:20.663Z,95.30
2019-03-15T22:12:28.177Z,95.50
2019-03-15T22:16:36.327Z,95.80
2019-03-15T22:20:43.875Z,95.40
2019-03-15T22:24:51.337Z,95.50
2019-03-15T22:28:58.800Z,95.50
2019-03-15T22:33:06.321Z,95.60
2019-03-15T22:37:14.471Z,95.50
2019-03-15T22:41:22.601Z,95.50
2019-03-15T22:45:30.756Z,95.40
2019-03-15T22:49:39.066Z,95.10
2019-03-15T22:53:47.210Z,95.00
2019-03-15T22:58:00.175Z,94.90
2019-03-15T23:02:03.597Z,95.10
2019-03-15T23:06:11.723Z,94.80
2019-03-15T23:10:19.859Z,95.00
2019-03-15T23:14:27.353Z,95.30
2019-03-15T23:18:34.864Z,95.00
2019-03-15T23:22:42.369Z,95.20
2019-03-15T23:26:49.845Z,95.10
2019-03-15T23:30:57.994Z,95.30
2019-03-15T23:35:05.461Z,95.30
2019-03-15T23:39:12.926Z,95.20
2019-03-15T23:43:20.385Z,95.20
2019-03-15T23:47:27.845Z,95.30
2019-03-15T23:51:35.304Z,95.30
2019-03-15T23:55:42.769Z,95.20
2019-03-15T23:59:50.841Z,95.20
